createdAt,value
2023-03-16T00:01:05.223Z,5.00
2023-03-16T00:03:31.963Z,5.43
2023-03-16T00:05:58.523Z,5.63
2023-03-16T00:08:25.300Z,5.30
2023-03-16T00:10:54.119Z,4.80
2023-03-16T00:13:26.493Z,5.03
2023-03-16T00:15:57.932Z,4.53
2023-03-16T00:18:28.971Z,4.70
2023-03-16T00:20:58.200Z,4.60
2023-03-16T00:23:28.535Z,4.27
2023-03-16T00:25:55.720Z,4.60
2023-03-16T00:28:23.256Z,3.20
2023-03-16T00:30:49.850Z,3.90
2023-03-16T00:33:16.608Z,5.00
2023-03-16T00:35:50.102Z,5.87
2023-03-16T00:38:20.392Z,5.40
2023-03-16T00:40:47.201Z,4.73
2023-03-16T00:43:18.783Z,5.80
2023-03-16T00:45:46.225Z,5.37
2023-03-16T00:48:12.886Z,5.60
2023-03-16T00:50:39.753Z,5.03
2023-03-16T00:53:06.350Z,5.70
2023-03-16T00:55:33.884Z,4.87
2023-03-16T00:58:00.455Z,4.70
2023-03-16T01:00:28.793Z,6.63
2023-03-16T01:02:55.601Z,5.20
2023-03-16T01:05:22.848Z,4.73
2023-03-16T01:07:49.292Z,4.80
2023-03-16T01:10:16.202Z,5.37
2023-03-16T01:12:45.281Z,5.80
2023-03-16T01:15:11.998Z,5.37
2023-03-16T01:17:38.672Z,5.50
2023-03-16T01:20:08.366Z,5.33
2023-03-16T01:22:35.081Z,5.57
2023-03-16T01:25:01.512Z,5.73
2023-03-16T01:27:28.025Z,6.03
2023-03-16T01:29:54.774Z,5.90
2023-03-16T01:32:21.421Z,5.03
2023-03-16T01:34:47.890Z,5.63
2023-03-16T01:37:15.551Z,5.60
2023-03-16T01:39:42.098Z,5.20
2023-03-16T01:42:09.143Z,6.40
2023-03-16T01:45:02.193Z,7.30
2023-03-16T01:47:28.763Z,6.67
2023-03-16T01:49:56.816Z,6.90
2023-03-16T01:52:27.917Z,6.63
2023-03-16T01:54:58.799Z,7.13
2023-03-16T01:57:32.600Z,7.33
2023-03-16T02:00:11.892Z,7.53
2023-03-16T02:02:40.343Z,6.60
2023-03-16T02:05:12.919Z,7.60
2023-03-16T02:07:59.078Z,7.13
2023-03-16T02:10:28.131Z,6.80
2023-03-16T02:12:55.542Z,7.20
2023-03-16T02:15:22.194Z,6.00
2023-03-16T02:17:49.658Z,6.17
2023-03-16T02:20:46.487Z,7.73
2023-03-16T02:23:18.570Z,6.47
2023-03-16T02:25:51.726Z,6.57
2023-03-16T02:28:34.249Z,7.00
2023-03-16T02:31:02.120Z,6.80
2023-03-16T02:33:29.129Z,6.20
2023-03-16T02:35:55.655Z,7.17
2023-03-16T02:38:22.264Z,7.30
2023-03-16T02:40:58.252Z,7.43
2023-03-16T02:43:27.705Z,6.70
2023-03-16T02:45:59.234Z,6.43
2023-03-16T02:48:40.506Z,6.67
2023-03-16T02:51:07.244Z,6.27
2023-03-16T02:53:33.846Z,7.57
2023-03-16T02:56:02.953Z,7.10
2023-03-16T02:58:30.214Z,6.97
2023-03-16T03:00:57.100Z,6.10
2023-03-16T03:03:24.022Z,6.63
2023-03-16T03:05:50.548Z,6.77
2023-03-16T03:08:18.380Z,6.77
2023-03-16T03:10:44.924Z,6.60
2023-03-16T03:13:12.336Z,5.80
2023-03-16T03:15:38.890Z,6.00
2023-03-16T03:18:06.395Z,6.20
2023-03-16T03:20:33.474Z,6.40
2023-03-16T03:23:00.074Z,6.40
2023-03-16T03:25:26.811Z,7.40
2023-03-16T03:27:56.257Z,7.30
2023-03-16T03:30:24.530Z,7.67
2023-03-16T03:32:52.517Z,20.90
2023-03-16T03:35:19.211Z,11.23
2023-03-16T03:37:46.047Z,7.83
2023-03-16T03:40:14.883Z,6.73
2023-03-16T03:42:42.267Z,5.83
2023-03-16T03:45:12.673Z,5.63
2023-03-16T03:47:40.110Z,5.73
2023-03-16T03:50:07.544Z,5.60
2023-03-16T03:52:34.196Z,6.70
2023-03-16T03:55:00.895Z,6.97
2023-03-16T03:57:27.544Z,6.60
2023-03-16T03:59:53.981Z,4.93
2023-03-16T04:02:20.616Z,5.30
2023-03-16T04:04:47.254Z,6.30
2023-03-16T04:07:13.735Z,6.00
2023-03-16T04:09:41.949Z,6.57
2023-03-16T04:12:08.707Z,6.83
2023-03-16T04:14:35.356Z,5.10
2023-03-16T04:17:02.027Z,5.77
2023-03-16T04:19:28.606Z,6.27
2023-03-16T04:21:55.208Z,6.30
2023-03-16T04:24:22.503Z,6.87
2023-03-16T04:26:49.282Z,7.70
2023-03-16T04:29:18.361Z,7.53
2023-03-16T04:31:45.507Z,7.27
2023-03-16T04:34:12.970Z,6.90
2023-03-16T04:36:39.661Z,6.40
2023-03-16T04:39:06.965Z,6.83
2023-03-16T04:41:33.616Z,5.77
2023-03-16T04:44:00.267Z,6.27
2023-03-16T04:46:27.128Z,6.30
2023-03-16T04:48:54.060Z,6.90
2023-03-16T04:51:21.658Z,5.87
2023-03-16T04:53:48.194Z,6.50
2023-03-16T04:56:19.818Z,6.30
2023-03-16T04:58:47.617Z,5.87
2023-03-16T05:01:14.858Z,6.43
2023-03-16T05:03:41.911Z,5.97
2023-03-16T05:06:08.693Z,6.57
2023-03-16T05:08:35.217Z,6.00
2023-03-16T05:11:01.890Z,6.47
2023-03-16T05:13:28.557Z,7.07
2023-03-16T05:15:55.394Z,6.80
2023-03-16T05:18:22.544Z,5.80
2023-03-16T05:20:53.554Z,6.00
2023-03-16T05:23:20.760Z,6.73
2023-03-16T05:25:48.420Z,6.83
2023-03-16T05:28:15.397Z,6.27
2023-03-16T05:30:42.764Z,5.80
2023-03-16T05:33:09.731Z,6.20
2023-03-16T05:35:36.627Z,7.00
2023-03-16T05:38:03.269Z,5.57
2023-03-16T05:40:30.061Z,6.50
2023-03-16T05:42:57.752Z,8.70
2023-03-16T05:45:24.716Z,7.33
2023-03-16T05:47:51.850Z,7.70
2023-03-16T05:50:18.556Z,9.20
2023-03-16T05:52:45.827Z,9.37
2023-03-16T05:55:14.991Z,10.90
2023-03-16T05:57:42.196Z,9.50
2023-03-16T06:00:16.213Z,8.93
2023-03-16T06:02:44.048Z,9.63
2023-03-16T06:05:11.274Z,11.13
2023-03-16T06:07:37.933Z,10.37
2023-03-16T06:10:05.383Z,9.57
2023-03-16T06:12:32.197Z,10.53
2023-03-16T06:14:58.725Z,9.90
2023-03-16T06:17:25.215Z,11.10
2023-03-16T06:19:52.040Z,11.30
2023-03-16T06:22:18.803Z,11.60
2023-03-16T06:24:45.365Z,11.20
2023-03-16T06:27:12.506Z,11.33
2023-03-16T06:29:39.031Z,12.67
2023-03-16T06:32:05.657Z,11.93
2023-03-16T06:34:32.266Z,9.70
2023-03-16T06:36:58.783Z,11.53
2023-03-16T06:39:25.580Z,10.90
2023-03-16T06:41:52.045Z,11.70
2023-03-16T06:44:18.539Z,9.50
2023-03-16T06:46:45.243Z,9.87
2023-03-16T06:49:11.884Z,9.90
2023-03-16T06:51:38.389Z,11.40
2023-03-16T06:54:04.892Z,13.17
2023-03-16T06:56:31.875Z,10.60
2023-03-16T06:58:58.442Z,9.23
2023-03-16T07:01:25.099Z,7.70
2023-03-16T07:03:51.842Z,7.30
2023-03-16T07:06:18.387Z,7.23
2023-03-16T07:08:45.013Z,7.30
2023-03-16T07:11:11.563Z,6.10
2023-03-16T07:13:38.568Z,6.40
2023-03-16T07:16:05.242Z,7.07
2023-03-16T07:18:31.933Z,7.63
2023-03-16T07:20:58.773Z,5.90
2023-03-16T07:23:25.721Z,7.53
2023-03-16T07:25:52.875Z,6.30
2023-03-16T07:28:19.779Z,7.13
2023-03-16T07:31:02.628Z,7.13
2023-03-16T07:33:29.979Z,7.00
2023-03-16T07:35:56.574Z,6.23
2023-03-16T07:38:23.227Z,6.67
2023-03-16T07:40:49.971Z,5.67
2023-03-16T07:43:16.580Z,11.40
2023-03-16T07:45:48.504Z,7.13
2023-03-16T07:48:15.183Z,5.90
2023-03-16T07:50:41.920Z,6.27
2023-03-16T07:53:08.521Z,5.97
2023-03-16T07:55:36.646Z,5.80
2023-03-16T07:58:05.637Z,6.20
2023-03-16T08:00:33.577Z,6.73
2023-03-16T08:03:00.382Z,7.03
2023-03-16T08:05:27.925Z,5.93
2023-03-16T08:07:56.357Z,5.97
2023-03-16T08:10:23.998Z,6.10
2023-03-16T08:12:51.667Z,5.47
2023-03-16T08:15:18.315Z,5.53
2023-03-16T08:17:45.655Z,5.60
2023-03-16T08:20:14.791Z,5.60
2023-03-16T08:22:42.536Z,5.37
2023-03-16T08:25:12.274Z,5.17
2023-03-16T08:27:38.908Z,5.77
2023-03-16T08:30:07.503Z,5.43
2023-03-16T08:32:34.250Z,5.20
2023-03-16T08:35:00.828Z,5.00
2023-03-16T08:37:28.984Z,5.37
2023-03-16T08:39:55.933Z,4.90
2023-03-16T08:42:22.521Z,4.57
2023-03-16T08:44:49.023Z,4.97
2023-03-16T08:47:16.131Z,3.90
2023-03-16T08:49:42.654Z,3.67
2023-03-16T08:52:13.092Z,4.07
2023-03-16T08:54:45.042Z,4.13
2023-03-16T08:57:19.417Z,3.50
2023-03-16T08:59:46.038Z,4.27
2023-03-16T09:02:14.314Z,4.20
2023-03-16T09:04:41.556Z,3.90
2023-03-16T09:07:09.894Z,4.40
2023-03-16T09:09:37.101Z,3.83
2023-03-16T09:12:04.481Z,3.53
2023-03-16T09:14:31.359Z,3.90
2023-03-16T09:16:58.452Z,3.57
2023-03-16T09:19:25.267Z,3.30
2023-03-16T09:21:51.847Z,3.30
2023-03-16T09:24:18.490Z,2.97
2023-03-16T09:26:45.762Z,3.27
2023-03-16T09:29:12.953Z,3.67
2023-03-16T09:31:39.535Z,3.03
2023-03-16T09:34:06.155Z,3.20
2023-03-16T09:36:33.848Z,3.13
2023-03-16T09:39:00.299Z,3.20
2023-03-16T09:41:48.772Z,2.67
2023-03-16T09:44:40.305Z,3.13
2023-03-16T09:47:11.165Z,3.10
2023-03-16T09:49:43.576Z,2.80
2023-03-16T09:52:27.271Z,3.30
2023-03-16T09:54:59.585Z,3.30
2023-03-16T09:57:35.630Z,3.40
2023-03-16T10:00:24.291Z,2.50
2023-03-16T10:03:09.725Z,3.00
2023-03-16T10:05:37.478Z,3.40
2023-03-16T10:08:42.993Z,2.43
2023-03-16T10:11:15.257Z,3.27
2023-03-16T10:13:47.737Z,3.40
2023-03-16T10:16:18.424Z,3.60
2023-03-16T10:18:48.458Z,2.93
2023-03-16T10:21:19.475Z,3.10
2023-03-16T10:23:48.790Z,2.90
2023-03-16T10:26:24.974Z,2.60
2023-03-16T10:28:53.044Z,2.60
2023-03-16T10:31:23.049Z,3.30
2023-03-16T10:33:52.944Z,3.00
2023-03-16T10:36:32.232Z,2.67
2023-03-16T10:39:07.330Z,2.63
2023-03-16T10:41:36.924Z,3.50
2023-03-16T10:44:13.152Z,2.77
2023-03-16T10:46:48.660Z,3.27
2023-03-16T10:49:36.059Z,2.80
2023-03-16T10:52:13.972Z,4.20
2023-03-16T10:54:49.818Z,2.50
2023-03-16T10:57:19.521Z,2.97
2023-03-16T10:59:52.786Z,2.80
2023-03-16T11:02:23.857Z,2.67
2023-03-16T11:04:51.205Z,3.00
2023-03-16T11:07:19.328Z,2.60
2023-03-16T11:09:47.247Z,2.57
2023-03-16T11:12:15.757Z,2.30
2023-03-16T11:14:45.505Z,2.40
2023-03-16T11:17:36.300Z,2.63
2023-03-16T11:20:12.664Z,2.87
2023-03-16T11:22:39.425Z,2.43
2023-03-16T11:25:11.866Z,2.77
2023-03-16T11:28:09.111Z,3.60
2023-03-16T11:30:54.338Z,2.60
2023-03-16T11:33:21.698Z,2.10
2023-03-16T11:35:59.292Z,2.50
2023-03-16T11:38:34.533Z,2.23
2023-03-16T11:41:12.680Z,1.83
2023-03-16T11:43:48.320Z,2.50
2023-03-16T11:46:22.882Z,2.70
2023-03-16T11:48:55.903Z,2.30
2023-03-16T11:51:42.247Z,3.37
2023-03-16T11:54:42.768Z,2.60
2023-03-16T11:57:24.433Z,2.40
2023-03-16T12:00:02.132Z,2.07
2023-03-16T12:02:47.620Z,2.53
2023-03-16T12:05:36.538Z,2.20
2023-03-16T12:08:12.483Z,2.40
2023-03-16T12:11:20.962Z,2.30
2023-03-16T12:14:01.483Z,2.83
2023-03-16T12:16:48.292Z,2.20
2023-03-16T12:19:30.591Z,2.73
2023-03-16T12:22:24.066Z,2.07
2023-03-16T12:24:50.625Z,3.13
2023-03-16T12:27:43.702Z,2.10
2023-03-16T12:30:24.896Z,2.50
2023-03-16T12:33:16.675Z,2.00
2023-03-16T12:36:13.557Z,2.30
2023-03-16T12:38:40.140Z,2.30
2023-03-16T12:41:17.984Z,1.90
2023-03-16T12:44:10.075Z,1.93
2023-03-16T12:47:00.750Z,2.20
2023-03-16T12:49:29.175Z,2.00
2023-03-16T12:52:01.742Z,2.70
2023-03-16T12:54:29.062Z,2.20
2023-03-16T12:57:06.315Z,1.90
2023-03-16T12:59:45.547Z,2.00
2023-03-16T13:02:18.293Z,2.17
2023-03-16T13:04:49.707Z,2.20
2023-03-16T13:07:21.684Z,2.67
2023-03-16T13:10:02.192Z,3.27
2023-03-16T13:12:32.966Z,3.10
2023-03-16T13:14:59.675Z,2.53
2023-03-16T13:17:32.309Z,2.27
2023-03-16T13:20:03.672Z,2.23
2023-03-16T13:23:13.204Z,1.80
2023-03-16T13:25:42.827Z,2.27
2023-03-16T13:28:17.273Z,2.70
2023-03-16T13:30:49.252Z,2.33
2023-03-16T13:33:26.118Z,2.70
2023-03-16T13:35:54.483Z,2.40
2023-03-16T13:38:22.842Z,2.77
2023-03-16T13:40:51.611Z,2.23
2023-03-16T13:43:22.940Z,2.50
2023-03-16T13:45:49.778Z,2.10
2023-03-16T13:48:18.162Z,1.90
2023-03-16T13:50:46.240Z,1.60
2023-03-16T13:53:24.793Z,2.87
2023-03-16T13:55:52.463Z,2.07
2023-03-16T13:58:22.675Z,2.30
2023-03-16T14:00:49.550Z,2.90
2023-03-16T14:03:20.626Z,2.77
2023-03-16T14:05:47.641Z,2.17
2023-03-16T14:08:22.203Z,2.40
2023-03-16T14:10:49.698Z,1.97
2023-03-16T14:13:28.414Z,2.53
2023-03-16T14:15:56.979Z,2.30
2023-03-16T14:18:30.507Z,2.37
2023-03-16T14:20:57.297Z,2.10
2023-03-16T14:23:25.791Z,3.17
2023-03-16T14:25:53.673Z,4.17
2023-03-16T14:28:27.213Z,3.50
2023-03-16T14:31:06.601Z,2.22
2023-03-16T14:33:35.573Z,2.27
2023-03-16T14:36:15.394Z,2.53
2023-03-16T14:38:43.810Z,2.43
2023-03-16T14:41:19.374Z,2.63
2023-03-16T14:43:55.530Z,2.23
2023-03-16T14:46:38.457Z,1.70
2023-03-16T14:49:15.423Z,2.43
2023-03-16T14:51:42.054Z,2.13
2023-03-16T14:54:14.156Z,2.10
2023-03-16T14:56:42.398Z,3.17
2023-03-16T14:59:10.715Z,3.40
2023-03-16T15:01:38.017Z,2.60
2023-03-16T15:04:06.055Z,2.83
2023-03-16T15:06:32.904Z,2.67
2023-03-16T15:09:03.322Z,1.40
2023-03-16T15:11:31.850Z,2.23
2023-03-16T15:14:14.509Z,3.17
2023-03-16T15:16:42.560Z,2.80
2023-03-16T15:19:10.181Z,2.90
2023-03-16T15:21:36.786Z,2.53
2023-03-16T15:24:03.628Z,2.67
2023-03-16T15:26:30.834Z,2.70
2023-03-16T15:28:57.982Z,3.50
2023-03-16T15:31:24.836Z,2.23
2023-03-16T15:33:51.608Z,4.10
2023-03-16T15:36:19.795Z,7.17
2023-03-16T15:38:51.591Z,4.70
2023-03-16T15:41:18.397Z,3.23
2023-03-16T15:43:45.803Z,2.33
2023-03-16T15:46:13.023Z,3.77
2023-03-16T15:48:39.881Z,2.30
2023-03-16T15:51:08.972Z,3.37
2023-03-16T15:53:40.494Z,2.70
2023-03-16T15:56:13.911Z,2.83
2023-03-16T15:58:42.144Z,3.90
2023-03-16T16:01:13.226Z,2.17
2023-03-16T16:03:40.376Z,2.37
2023-03-16T16:06:11.110Z,2.60
2023-03-16T16:08:37.755Z,2.70
2023-03-16T16:11:12.870Z,3.27
2023-03-16T16:13:44.666Z,2.30
2023-03-16T16:16:14.758Z,2.50
2023-03-16T16:18:41.662Z,2.00
2023-03-16T16:21:16.143Z,2.27
2023-03-16T16:23:42.989Z,1.93
2023-03-16T16:26:21.466Z,2.53
2023-03-16T16:28:48.306Z,2.67
2023-03-16T16:31:15.112Z,3.50
2023-03-16T16:33:41.635Z,2.63
2023-03-16T16:36:15.101Z,2.40
2023-03-16T16:38:41.676Z,1.90
2023-03-16T16:41:09.370Z,2.30
2023-03-16T16:43:41.622Z,2.17
2023-03-16T16:46:24.060Z,1.93
2023-03-16T16:48:53.466Z,2.77
2023-03-16T16:51:28.180Z,2.33
2023-03-16T16:53:57.432Z,3.60
2023-03-16T16:56:32.585Z,4.43
2023-03-16T16:59:14.025Z,4.10
2023-03-16T17:01:40.922Z,3.00
2023-03-16T17:04:14.394Z,3.40
2023-03-16T17:06:41.207Z,3.30
2023-03-16T17:09:08.828Z,3.47
2023-03-16T17:11:36.193Z,3.40
2023-03-16T17:14:05.484Z,3.60
2023-03-16T17:16:34.975Z,3.67
2023-03-16T17:19:01.621Z,4.00
2023-03-16T17:21:30.064Z,3.67
2023-03-16T17:23:57.339Z,3.40
2023-03-16T17:26:34.394Z,4.50
2023-03-16T17:29:39.023Z,4.40
2023-03-16T17:32:24.620Z,3.67
2023-03-16T17:34:51.680Z,3.70
2023-03-16T17:37:20.138Z,4.57
2023-03-16T17:39:47.071Z,5.03
2023-03-16T17:42:17.665Z,4.60
2023-03-16T17:44:49.485Z,5.20
2023-03-16T17:47:18.669Z,4.60
2023-03-16T17:49:48.781Z,4.70
2023-03-16T17:52:23.801Z,4.20
2023-03-16T17:54:52.005Z,4.67
2023-03-16T17:57:27.591Z,4.37
2023-03-16T17:59:54.704Z,4.07
2023-03-16T18:02:50.569Z,3.00
2023-03-16T18:05:38.166Z,2.80
2023-03-16T18:08:20.551Z,2.83
2023-03-16T18:10:49.969Z,3.13
2023-03-16T18:13:28.991Z,2.07
2023-03-16T18:15:56.315Z,2.80
2023-03-16T18:18:26.661Z,3.27
2023-03-16T18:20:55.125Z,4.53
2023-03-16T18:23:26.837Z,3.90
2023-03-16T18:25:55.949Z,3.30
2023-03-16T18:28:23.266Z,4.70
2023-03-16T18:30:54.643Z,5.07
2023-03-16T18:33:27.656Z,4.53
2023-03-16T18:35:57.537Z,7.40
2023-03-16T18:38:33.693Z,5.90
2023-03-16T18:41:02.282Z,14.27
2023-03-16T18:43:29.880Z,16.67
2023-03-16T18:45:56.950Z,16.47
2023-03-16T18:48:30.214Z,10.90
2023-03-16T18:50:57.058Z,8.00
2023-03-16T18:53:23.832Z,6.27
2023-03-16T18:55:50.887Z,9.30
2023-03-16T18:58:20.621Z,9.73
2023-03-16T19:00:52.856Z,8.43
2023-03-16T19:03:23.671Z,8.27
2023-03-16T19:05:50.371Z,7.90
2023-03-16T19:08:16.949Z,7.20
2023-03-16T19:10:53.038Z,5.70
2023-03-16T19:13:22.481Z,6.00
2023-03-16T19:15:51.257Z,4.00
2023-03-16T19:18:18.344Z,4.90
2023-03-16T19:20:49.937Z,5.30
2023-03-16T19:23:21.775Z,5.40
2023-03-16T19:25:49.086Z,5.40
2023-03-16T19:28:39.316Z,6.40
2023-03-16T19:31:21.171Z,6.60
2023-03-16T19:33:48.487Z,7.60
2023-03-16T19:36:19.871Z,6.80
2023-03-16T19:38:50.258Z,5.87
2023-03-16T19:41:24.796Z,4.50
2023-03-16T19:43:52.020Z,4.70
2023-03-16T19:46:19.234Z,3.90
2023-03-16T19:48:46.013Z,4.83
2023-03-16T19:51:13.869Z,5.97
2023-03-16T19:53:41.512Z,4.60
2023-03-16T19:56:19.598Z,8.00
2023-03-16T19:58:49.705Z,5.30
2023-03-16T20:01:17.699Z,4.73
2023-03-16T20:03:45.872Z,4.10
2023-03-16T20:06:14.727Z,4.40
2023-03-16T20:08:41.617Z,4.20
2023-03-16T20:11:17.645Z,4.17
2023-03-16T20:13:46.062Z,4.30
2023-03-16T20:16:16.814Z,4.33
2023-03-16T20:18:43.824Z,5.40
2023-03-16T20:21:15.365Z,4.13
2023-03-16T20:23:42.001Z,3.53
2023-03-16T20:26:15.832Z,3.67
2023-03-16T20:28:42.517Z,2.53
2023-03-16T20:31:17.423Z,2.47
2023-03-16T20:33:55.210Z,2.13
2023-03-16T20:36:22.372Z,2.47
2023-03-16T20:38:49.364Z,2.70
2023-03-16T20:41:26.447Z,2.77
2023-03-16T20:43:54.547Z,2.10
2023-03-16T20:46:25.252Z,2.27
2023-03-16T20:48:52.063Z,2.40
2023-03-16T20:51:18.719Z,2.30
2023-03-16T20:53:46.803Z,3.27
2023-03-16T20:56:25.915Z,3.33
2023-03-16T20:58:54.775Z,2.73
2023-03-16T21:01:22.713Z,2.50
2023-03-16T21:03:55.255Z,2.13
2023-03-16T21:06:30.501Z,1.77
2023-03-16T21:08:59.690Z,1.97
2023-03-16T21:11:31.248Z,2.47
2023-03-16T21:13:57.905Z,2.27
2023-03-16T21:16:25.442Z,1.90
2023-03-16T21:18:52.231Z,2.53
2023-03-16T21:21:19.778Z,2.97
2023-03-16T21:23:46.617Z,2.13
2023-03-16T21:26:21.188Z,2.60
2023-03-16T21:28:53.161Z,2.47
2023-03-16T21:31:20.667Z,2.00
2023-03-16T21:33:48.295Z,2.10
2023-03-16T21:36:17.096Z,2.03
2023-03-16T21:38:44.634Z,2.20
2023-03-16T21:41:11.769Z,2.00
2023-03-16T21:43:39.740Z,2.30
2023-03-16T21:46:14.440Z,1.50
2023-03-16T21:48:41.723Z,2.33
2023-03-16T21:51:17.797Z,3.40
2023-03-16T21:53:45.004Z,2.27
2023-03-16T21:56:16.390Z,2.17
2023-03-16T21:58:44.079Z,2.30
2023-03-16T22:01:26.560Z,2.33
2023-03-16T22:03:57.460Z,2.00
2023-03-16T22:06:27.950Z,1.77
2023-03-16T22:08:55.333Z,1.83
2023-03-16T22:11:24.312Z,1.70
2023-03-16T22:13:51.453Z,1.77
2023-03-16T22:16:20.190Z,2.40
2023-03-16T22:18:48.947Z,2.07
2023-03-16T22:21:35.261Z,2.30
2023-03-16T22:24:05.397Z,2.20
2023-03-16T22:26:32.241Z,1.80
2023-03-16T22:29:00.604Z,2.17
2023-03-16T22:31:33.527Z,1.80
2023-03-16T22:34:01.333Z,1.77
2023-03-16T22:36:28.320Z,1.50
2023-03-16T22:39:03.953Z,1.90
2023-03-16T22:41:30.824Z,1.83
2023-03-16T22:43:57.917Z,2.17
2023-03-16T22:46:26.152Z,1.70
2023-03-16T22:48:53.992Z,1.53
2023-03-16T22:51:25.042Z,2.07
2023-03-16T22:53:54.354Z,2.33
2023-03-16T22:56:20.844Z,2.40
2023-03-16T22:58:54.485Z,2.00
2023-03-16T23:01:23.297Z,1.87
2023-03-16T23:03:51.548Z,2.43
2023-03-16T23:06:25.286Z,1.93
2023-03-16T23:08:53.138Z,2.33
2023-03-16T23:11:23.757Z,1.97
2023-03-16T23:13:53.515Z,2.50
2023-03-16T23:16:26.146Z,2.03
2023-03-16T23:18:53.045Z,2.27
2023-03-16T23:21:22.416Z,1.93
2023-03-16T23:24:02.654Z,2.13
2023-03-16T23:26:30.706Z,2.07
2023-03-16T23:28:57.627Z,1.67
2023-03-16T23:31:25.242Z,1.97
2023-03-16T23:33:51.865Z,1.80
2023-03-16T23:36:20.720Z,1.80
2023-03-16T23:38:48.853Z,2.03
2023-03-16T23:41:18.108Z,2.30
2023-03-16T23:43:46.087Z,2.13
2023-03-16T23:46:18.051Z,1.53
2023-03-16T23:48:46.049Z,1.70
2023-03-16T23:51:21.238Z,2.13
2023-03-16T23:53:48.614Z,1.87
2023-03-16T23:56:15.333Z,2.13
2023-03-16T23:58:42.046Z,2.17
